Impacts METAR Board INFO
IDs:

KSAN - San Diego Intl Arpt, CA, US

Updated at: 0640 UTC 12 Dec 2017
Potential Impact None Slight Moderate High
Time11/18Z 11/19Z 11/20Z 11/21Z 11/22Z 11/23Z 12/00Z 12/01Z 12/02Z 12/03Z 12/04Z 12/05Z 12/06Z
VIS10 10 10 10 10 10 10 10 10 10 10 10 10
CIG-- -- -- -- -- -- -- -- -- -- -- -- --
CoverSCTSCTSCTSCTSCTSCTSCTSCTSCTFEWFEWFEWFEW
FltCatVFRVFRVFRVFRVFRVFRVFRVFRVFRVFRVFRVFRVFR
WX--------------------------
WDir0300300310310300310310000100
WSpd0 5 8 10 8 7 6 4 3 0 0 3 0
WGst-- -- -- -- -- -- -- -- -- -- -- -- --
Raw hourly METARs
KSAN 111751Z 00000KT 10SM FEW160 FEW200 SCT250 23/M09 A3022 RMK AO2 SLP233 T02281094 10233 20122 51014
KSAN 111851Z 30005KT 10SM FEW160 FEW200 SCT250 24/M07 A3021 RMK AO2 SLP228 T02441072
KSAN 111951Z 30008KT 10SM FEW160 FEW200 SCT250 26/M04 A3018 RMK AO2 SLP218 T02561039
KSAN 112051Z 31010KT 10SM FEW200 SCT250 26/M08 A3016 RMK AO2 SLP212 T02561083 58022
KSAN 112156Z 31008KT 10SM FEW004 FEW200 SCT250 26/M09 A3015 RMK AO2 FU FEW004 T02611094
KSAN 112251Z 30007KT 10SM FEW010 FEW200 SCT250 26/M06 A3014 RMK AO2 SLP206 FU FEW010 T02611061
KSAN 112351Z 31006KT 10SM SCT250 23/04 A3015 RMK AO2 SLP208 T02330039 10267 20233 55003
KSAN 120051Z 31004KT 10SM SCT250 20/09 A3016 RMK AO2 SLP214 T02000089
KSAN 120151Z VRB03KT 10SM SCT250 21/01 A3017 RMK AO2 SLP216 T02060006
KSAN 120251Z 00000KT 10SM FEW250 19/M01 A3018 RMK AO2 SLP220 T01891011 51012
KSAN 120351Z 00000KT 10SM FEW250 19/M01 A3018 RMK AO2 SLP218 T01891006
KSAN 120451Z 01003KT 10SM FEW250 17/M04 A3018 RMK AO2 SLP220 T01671039
KSAN 120551Z 00000KT 10SM FEW250 16/M05 A3020 RMK AO2 SLP224 T01561050 10233 20156 53005